X  Fermer Données météorologiques d'aviation de Metar     LGRX Patras Araxos Agamemnon Airport
Température
14°C Température
11°C Point de rosée
82% Humidité



Vent
5 KM/H
3 MPH
1 M/S
3 KTS



Calme
N
Conditions actuelles

Partiellement nuageux Partiellement nuageux
Pression 1015.92 (hPa) - 30 (inHg)
Visibilité 6 (mile) - 9.7 (km)
Aéroport
Code de l'aéroport LGRX

Emplacement: Patras Araxos Agamemnon Airport
Distance: 108 (km)

Metar:
LGRX 272250Z VRB03KT 9999 FEW020 14/11 Q1016

Temps: 28-05-2024 01:50 EEST